Cass, WV

4:23 PM EDT on August 04, 2015 (GMT -0400)
Green Bank Observatory, near 140ft telescope | | Change Station
CLOSE
Current Station
Personal Weather Station
Location: Green Bank, WV
Elevation: 2688 ft
Nearby Weather Stations

Elev 2688 ft 38.44 °N, 79.83 °W | Updated 2 minutes ago

Partly Cloudy
Partly Cloudy
82.2 °F
Feels Like 82 °F
N
10.3
Wind Variable Wind from NW
Gusts 15.8 mph

Today
High -- | Low -- °F
--% Chance of Precip.
Yesterday
High -- | Low -- °F
Precip. -- in
6:23 AM 8:26 PM
Waning Gibbous, 75% visible
Pressure 30.11 in
Visibility 10.0 miles
Clouds Scattered Clouds 2800 ft
Scattered Clouds 3400 ft
Scattered Clouds 4600 ft
Heat Index 82 °F
Dew Point 58 °F
Humidity 43%
Rainfall 0.00 in
Snow Depth Not available.
UV 7 out of 12
Pollen 3.40 out of 12
Air Quality Not available.
Flu Activity Not available.
METAR KHSP 041950Z AUTO 26012G15KT 10SM SCT028 SCT034 SCT046 26/17 A3011 RMK AO2 T02590172

More Conditions Fewer Conditions

Pressure 30.11 in
Visibility 10.0 miles
Clouds Scattered Clouds 2800 ft
Scattered Clouds 3400 ft
Scattered Clouds 4600 ft
Heat Index 82 °F
Dew Point 58 °F
Humidity 43%
Rainfall 0.00 in
Snow Depth Not available.
UV 7 out of 12
Pollen 3.40 out of 12
Air Quality Not available.
Flu Activity Not available.
METAR KHSP 041950Z AUTO 26012G15KT 10SM SCT028 SCT034 SCT046 26/17 A3011 RMK AO2 T02590172

More Conditions Fewer Conditions

10-Day Weather Forecast

×

Almanac

Astronomy

Aug. 04, 2015 Rise Set
Actual Time
Civil Twilight
Nautical Twilight
Astronomical Twilight
Moon
Length of Visible Light
Length of Day
Tomorrow will be .
, % of the Moon is Illuminated

Today's Extremes

State Highs State Lows

Community

WunderPhotos

Upload Photos

1,843,963 photos uploaded!

WunderBlogs® & News

Nearby

Air Quality

  Air Quality AQ Index Pollutant
Not available.

Snow Depth

Station Depth Elevation

Earthquake Activity

City Distance Mag. Time & Date
Minimum magnitude displayed is 2.5.

Coastal Water Temperatures

Place Temperature

Stations

Nearby Weather Stations

Station Location Temp. Windchill Dew Point Humidity Wind Precip. Elev Updated Type